createdAt,value
2023-07-18T00:01:33.381Z,15.24
2023-07-18T00:04:00.232Z,15.20
2023-07-18T00:06:27.154Z,15.14
2023-07-18T00:08:53.858Z,15.09
2023-07-18T00:11:22.959Z,15.05
2023-07-18T00:13:49.604Z,15.02
2023-07-18T00:16:16.427Z,14.99
2023-07-18T00:18:43.201Z,14.96
2023-07-18T00:21:09.786Z,14.94
2023-07-18T00:23:36.407Z,14.90
2023-07-18T00:26:03.127Z,14.89
2023-07-18T00:28:29.752Z,14.85
2023-07-18T00:30:56.462Z,14.83
2023-07-18T00:33:23.876Z,14.82
2023-07-18T00:35:50.605Z,14.81
2023-07-18T00:38:17.659Z,14.77
2023-07-18T00:40:44.843Z,14.74
2023-07-18T00:43:18.489Z,14.70
2023-07-18T00:45:45.704Z,14.68
2023-07-18T00:48:12.610Z,14.68
2023-07-18T00:50:39.582Z,14.69
2023-07-18T00:53:06.274Z,14.68
2023-07-18T00:55:33.138Z,14.66
2023-07-18T00:57:59.889Z,14.64
2023-07-18T01:00:26.672Z,14.63
2023-07-18T01:02:54.666Z,14.59
2023-07-18T01:05:21.575Z,14.54
2023-07-18T01:07:48.438Z,14.49
2023-07-18T01:10:18.463Z,14.44
2023-07-18T01:12:45.947Z,14.44
2023-07-18T01:15:14.220Z,14.42
2023-07-18T01:17:46.204Z,14.41
2023-07-18T01:20:17.813Z,14.40
2023-07-18T01:22:45.347Z,14.38
2023-07-18T01:25:13.306Z,14.40
2023-07-18T01:27:40.071Z,14.38
2023-07-18T01:30:07.504Z,14.38
2023-07-18T01:32:35.350Z,14.37
2023-07-18T01:35:04.968Z,14.35
2023-07-18T01:37:31.626Z,14.35
2023-07-18T01:39:58.846Z,14.35
2023-07-18T01:42:25.466Z,14.34
2023-07-18T01:44:52.238Z,14.31
2023-07-18T01:47:18.987Z,14.31
2023-07-18T01:49:45.663Z,14.28
2023-07-18T01:52:12.309Z,14.26
2023-07-18T01:54:38.912Z,14.26
2023-07-18T01:57:06.084Z,14.24
2023-07-18T01:59:32.685Z,14.23
2023-07-18T02:01:59.474Z,14.21
2023-07-18T02:04:27.148Z,14.21
2023-07-18T02:06:55.091Z,14.21
2023-07-18T02:09:21.788Z,14.20
2023-07-18T02:11:48.683Z,14.20
2023-07-18T02:14:17.034Z,14.19
2023-07-18T02:16:43.745Z,14.18
2023-07-18T02:19:10.360Z,14.17
2023-07-18T02:21:36.998Z,14.17
2023-07-18T02:24:04.516Z,14.17
2023-07-18T02:26:31.212Z,14.18
2023-07-18T02:28:57.933Z,14.16
2023-07-18T02:31:24.600Z,14.14
2023-07-18T02:33:51.295Z,14.12
2023-07-18T02:36:19.197Z,14.12
2023-07-18T02:38:45.893Z,14.11
2023-07-18T02:41:12.488Z,14.08
2023-07-18T02:43:39.245Z,14.07
2023-07-18T02:46:05.915Z,14.03
2023-07-18T02:48:32.600Z,14.02
2023-07-18T02:50:59.238Z,14.03
2023-07-18T02:53:25.902Z,14.00
2023-07-18T02:55:53.043Z,13.98
2023-07-18T02:58:19.736Z,13.95
2023-07-18T03:00:47.175Z,13.94
2023-07-18T03:03:14.059Z,13.92
2023-07-18T03:05:40.841Z,13.91
2023-07-18T03:08:07.576Z,13.89
2023-07-18T03:10:34.236Z,13.88
2023-07-18T03:13:00.862Z,13.89
2023-07-18T03:15:27.541Z,13.87
2023-07-18T03:17:54.169Z,13.85
2023-07-18T03:20:21.232Z,13.85
2023-07-18T03:22:48.665Z,13.87
2023-07-18T03:25:15.733Z,13.86
2023-07-18T03:27:42.619Z,13.86
2023-07-18T03:30:11.940Z,13.84
2023-07-18T03:32:39.608Z,13.83
2023-07-18T03:35:07.524Z,13.84
2023-07-18T03:37:34.961Z,13.84
2023-07-18T03:40:01.703Z,13.82
2023-07-18T03:42:28.475Z,13.82
2023-07-18T03:44:55.143Z,13.82
2023-07-18T03:47:22.082Z,13.80
2023-07-18T03:49:48.774Z,13.80
2023-07-18T03:52:16.151Z,13.80
2023-07-18T03:54:43.098Z,13.79
2023-07-18T03:57:09.921Z,13.79
2023-07-18T03:59:36.506Z,13.79
2023-07-18T04:02:03.207Z,13.81
2023-07-18T04:04:31.236Z,13.81
2023-07-18T04:06:57.936Z,13.82
2023-07-18T04:09:24.588Z,13.85
2023-07-18T04:11:51.243Z,13.84
2023-07-18T04:14:17.877Z,13.84
2023-07-18T04:16:44.690Z,13.83
2023-07-18T04:19:11.421Z,13.83
2023-07-18T04:21:38.099Z,13.83
2023-07-18T04:24:06.078Z,13.85
2023-07-18T04:26:32.853Z,13.88
2023-07-18T04:28:59.584Z,13.91
2023-07-18T04:31:27.484Z,13.95
2023-07-18T04:33:54.285Z,13.96
2023-07-18T04:36:20.919Z,13.96
2023-07-18T04:38:47.580Z,13.97
2023-07-18T04:41:14.418Z,13.98
2023-07-18T04:43:41.171Z,13.99
2023-07-18T04:46:09.431Z,14.03
2023-07-18T04:48:36.099Z,14.05
2023-07-18T04:51:02.846Z,14.09
2023-07-18T04:53:30.416Z,14.12
2023-07-18T04:55:57.279Z,14.16
2023-07-18T04:58:26.116Z,14.17
2023-07-18T05:00:54.633Z,14.20
2023-07-18T05:03:21.922Z,14.25
2023-07-18T05:05:48.656Z,14.27
2023-07-18T05:08:15.273Z,14.31
2023-07-18T05:10:42.092Z,14.34
2023-07-18T05:13:08.808Z,14.37
2023-07-18T05:15:35.716Z,14.42
2023-07-18T05:18:02.541Z,14.46
2023-07-18T05:20:30.846Z,14.53
2023-07-18T05:22:57.611Z,14.60
2023-07-18T05:25:24.301Z,14.66
2023-07-18T05:27:50.958Z,14.73
2023-07-18T05:30:18.818Z,14.80
2023-07-18T05:32:46.015Z,14.93
2023-07-18T05:35:15.305Z,14.98
2023-07-18T05:37:42.554Z,15.03
2023-07-18T05:40:12.509Z,15.11
2023-07-18T05:42:42.828Z,15.20
2023-07-18T05:45:09.835Z,15.28
2023-07-18T05:47:37.131Z,15.36
2023-07-18T05:50:05.877Z,15.44
2023-07-18T05:52:32.765Z,15.49
2023-07-18T05:54:59.704Z,15.54
2023-07-18T05:57:26.441Z,15.60
2023-07-18T05:59:53.114Z,15.65
2023-07-18T06:02:21.291Z,15.73
2023-07-18T06:04:48.536Z,15.84
2023-07-18T06:07:16.346Z,15.94
2023-07-18T06:09:43.538Z,16.07
2023-07-18T06:12:10.577Z,16.14
2023-07-18T06:14:37.199Z,16.20
2023-07-18T06:17:04.643Z,16.24
2023-07-18T06:19:31.494Z,16.35
2023-07-18T06:21:58.405Z,16.44
2023-07-18T06:24:25.756Z,16.50
2023-07-18T06:26:52.644Z,16.62
2023-07-18T06:29:19.884Z,16.71
2023-07-18T06:31:47.344Z,16.85
2023-07-18T06:34:13.990Z,16.98
2023-07-18T06:36:40.716Z,17.15
2023-07-18T06:39:07.411Z,17.30
2023-07-18T06:41:34.462Z,17.47
2023-07-18T06:44:01.300Z,17.59
2023-07-18T06:46:28.829Z,17.63
2023-07-18T06:48:55.502Z,17.68
2023-07-18T06:51:24.061Z,17.73
2023-07-18T06:53:50.734Z,17.78
2023-07-18T06:56:17.350Z,17.91
2023-07-18T06:58:44.055Z,18.05
2023-07-18T07:01:11.830Z,18.14
2023-07-18T07:03:38.728Z,18.21
2023-07-18T07:06:12.466Z,18.30
2023-07-18T07:08:39.120Z,18.34
2023-07-18T07:11:06.841Z,18.39
2023-07-18T07:13:34.781Z,18.49
2023-07-18T07:16:02.191Z,18.62
2023-07-18T07:18:28.858Z,18.73
2023-07-18T07:20:55.841Z,18.82
2023-07-18T07:23:22.502Z,19.01
2023-07-18T07:25:49.235Z,19.24
2023-07-18T07:28:15.978Z,19.41
2023-07-18T07:30:43.794Z,19.54
2023-07-18T07:33:10.603Z,19.63
2023-07-18T07:35:37.207Z,19.73
2023-07-18T07:38:03.873Z,19.76
2023-07-18T07:40:31.087Z,19.73
2023-07-18T07:42:57.784Z,19.76
2023-07-18T07:45:24.520Z,19.87
2023-07-18T07:47:51.223Z,19.98
2023-07-18T07:50:17.977Z,20.17
2023-07-18T07:52:44.760Z,20.35
2023-07-18T07:55:12.495Z,20.48
2023-07-18T07:57:39.815Z,20.65
2023-07-18T08:00:08.326Z,20.76
2023-07-18T08:02:35.621Z,20.87
2023-07-18T08:05:02.449Z,21.01
2023-07-18T08:07:29.333Z,21.21
2023-07-18T08:09:56.284Z,21.43
2023-07-18T08:12:23.340Z,21.61
2023-07-18T08:14:50.241Z,21.70
2023-07-18T08:17:18.213Z,21.81
2023-07-18T08:19:44.928Z,21.95
2023-07-18T08:22:11.771Z,22.04
2023-07-18T08:24:39.254Z,22.18
2023-07-18T08:27:06.489Z,22.29
2023-07-18T08:29:34.623Z,22.43
2023-07-18T08:32:01.555Z,22.52
2023-07-18T08:34:28.359Z,22.60
2023-07-18T08:36:55.027Z,22.72
2023-07-18T08:39:21.686Z,22.75
2023-07-18T08:41:52.793Z,22.74
2023-07-18T08:44:20.336Z,22.82
2023-07-18T08:46:47.140Z,22.92
2023-07-18T08:49:15.290Z,23.08
2023-07-18T08:51:45.511Z,23.23
2023-07-18T08:54:13.120Z,23.34
2023-07-18T08:56:45.093Z,23.42
2023-07-18T08:59:12.166Z,23.45
2023-07-18T09:01:49.127Z,23.57
2023-07-18T09:04:16.225Z,23.65
2023-07-18T09:06:59.317Z,23.80
2023-07-18T09:09:27.299Z,23.93
2023-07-18T09:11:55.485Z,24.02
2023-07-18T09:14:29.696Z,24.08
2023-07-18T09:16:56.903Z,24.15
2023-07-18T09:19:40.833Z,24.34
2023-07-18T09:22:11.735Z,24.50
2023-07-18T09:24:38.613Z,24.67
2023-07-18T09:27:09.486Z,24.82
2023-07-18T09:29:36.189Z,24.93
2023-07-18T09:32:02.972Z,25.11
2023-07-18T09:34:29.757Z,25.20
2023-07-18T09:37:00.922Z,25.16
2023-07-18T09:39:28.218Z,25.19
2023-07-18T09:41:56.024Z,25.27
2023-07-18T09:44:33.111Z,25.41
2023-07-18T09:47:02.181Z,25.41
2023-07-18T09:49:33.052Z,25.47
2023-07-18T09:52:04.159Z,25.39
2023-07-18T09:54:34.153Z,25.41
2023-07-18T09:57:03.966Z,25.43
2023-07-18T09:59:30.900Z,25.44
2023-07-18T10:01:57.684Z,25.43
2023-07-18T10:04:24.751Z,25.42
2023-07-18T10:06:51.710Z,25.52
2023-07-18T10:09:18.450Z,25.62
2023-07-18T10:12:00.553Z,25.77
2023-07-18T10:14:54.351Z,25.96
2023-07-18T10:17:41.661Z,26.26
2023-07-18T10:20:24.148Z,26.31
2023-07-18T10:22:51.806Z,26.37
2023-07-18T10:25:18.892Z,26.28
2023-07-18T10:27:46.159Z,26.32
2023-07-18T10:30:17.336Z,26.39
2023-07-18T10:32:53.685Z,26.59
2023-07-18T10:35:21.542Z,26.66
2023-07-18T10:37:53.542Z,26.81
2023-07-18T10:40:44.084Z,26.96
2023-07-18T10:43:17.084Z,27.16
2023-07-18T10:45:44.293Z,27.31
2023-07-18T10:48:14.868Z,27.23
2023-07-18T10:50:42.795Z,27.16
2023-07-18T10:53:22.349Z,27.29
2023-07-18T10:55:49.555Z,27.52
2023-07-18T10:58:17.793Z,27.70
2023-07-18T11:00:44.592Z,27.78
2023-07-18T11:03:22.447Z,27.89
2023-07-18T11:05:52.939Z,28.01
2023-07-18T11:08:29.988Z,28.10
2023-07-18T11:11:01.747Z,28.24
2023-07-18T11:13:34.997Z,28.26
2023-07-18T11:16:09.081Z,28.18
2023-07-18T11:18:36.627Z,28.08
2023-07-18T11:21:04.729Z,28.18
2023-07-18T11:23:31.871Z,28.36
2023-07-18T11:25:58.616Z,28.45
2023-07-18T11:28:34.811Z,28.70
2023-07-18T11:31:01.596Z,28.80
2023-07-18T11:33:29.315Z,28.97
2023-07-18T11:35:57.554Z,29.17
2023-07-18T11:38:25.738Z,29.27
2023-07-18T11:40:52.987Z,29.21
2023-07-18T11:43:19.787Z,29.19
2023-07-18T11:45:47.716Z,29.29
2023-07-18T11:48:17.259Z,29.09
2023-07-18T11:50:46.760Z,29.23
2023-07-18T11:53:13.461Z,29.46
2023-07-18T11:55:40.098Z,29.52
2023-07-18T11:58:09.225Z,29.64
2023-07-18T12:00:36.473Z,29.80
2023-07-18T12:03:04.024Z,29.80
2023-07-18T12:05:30.766Z,29.64
2023-07-18T12:07:57.466Z,29.77
2023-07-18T12:10:26.170Z,29.94
2023-07-18T12:12:53.143Z,30.19
2023-07-18T12:15:19.881Z,30.31
2023-07-18T12:17:48.232Z,30.09
2023-07-18T12:20:15.418Z,30.13
2023-07-18T12:22:42.241Z,30.24
2023-07-18T12:25:09.333Z,30.15
2023-07-18T12:27:36.451Z,30.17
2023-07-18T12:30:03.455Z,30.35
2023-07-18T12:32:32.305Z,30.49
2023-07-18T12:34:59.322Z,30.55
2023-07-18T12:37:26.063Z,30.71
2023-07-18T12:39:52.819Z,30.81
2023-07-18T12:42:19.521Z,30.77
2023-07-18T12:44:46.421Z,30.69
2023-07-18T12:47:13.488Z,30.83
2023-07-18T12:52:09.977Z,31.18
2023-07-18T12:54:36.647Z,31.24
2023-07-18T12:57:04.241Z,31.35
2023-07-18T12:59:30.917Z,31.43
2023-07-18T13:01:57.776Z,31.56
2023-07-18T13:04:25.622Z,31.52
2023-07-18T13:06:52.334Z,31.56
2023-07-18T13:09:19.059Z,31.56
2023-07-18T13:11:46.326Z,31.64
2023-07-18T13:14:17.359Z,31.65
2023-07-18T13:16:44.057Z,31.65
2023-07-18T13:19:10.798Z,31.65
2023-07-18T13:21:37.551Z,31.54
2023-07-18T13:24:04.502Z,31.30
2023-07-18T13:26:31.378Z,31.12
2023-07-18T13:28:58.763Z,31.15
2023-07-18T13:31:25.544Z,31.28
2023-07-18T13:33:52.374Z,31.24
2023-07-18T13:36:19.523Z,31.20
2023-07-18T13:38:46.771Z,31.29
2023-07-18T13:41:13.976Z,31.03
2023-07-18T13:43:40.911Z,31.03
2023-07-18T13:46:07.683Z,31.09
2023-07-18T13:48:34.767Z,31.25
2023-07-18T13:51:01.674Z,31.30
2023-07-18T13:53:28.534Z,31.24
2023-07-18T13:55:56.188Z,31.49
2023-07-18T13:58:23.348Z,31.34
2023-07-18T14:00:50.241Z,31.21
2023-07-18T14:03:33.454Z,31.11
2023-07-18T14:06:02.482Z,30.95
2023-07-18T14:08:30.861Z,30.83
2023-07-18T14:10:57.767Z,30.75
2023-07-18T14:13:24.680Z,30.41
2023-07-18T14:15:51.862Z,29.84
2023-07-18T14:18:18.782Z,29.96
2023-07-18T14:20:46.222Z,30.09
2023-07-18T14:23:13.247Z,29.89
2023-07-18T14:25:40.046Z,29.68
2023-07-18T14:28:06.724Z,29.51
2023-07-18T14:30:33.545Z,29.34
2023-07-18T14:33:01.056Z,29.13
2023-07-18T14:35:29.086Z,29.10
2023-07-18T14:37:55.758Z,29.37
2023-07-18T14:40:22.417Z,29.53
2023-07-18T14:42:49.066Z,29.50
2023-07-18T14:45:15.774Z,29.42
2023-07-18T14:47:43.023Z,29.49
2023-07-18T14:50:11.077Z,29.59
2023-07-18T14:52:38.669Z,29.67
2023-07-18T14:55:05.893Z,29.43
2023-07-18T14:57:32.662Z,29.20
2023-07-18T14:59:59.470Z,29.05
2023-07-18T15:02:26.219Z,28.46
2023-07-18T15:04:53.002Z,28.13
2023-07-18T15:07:19.806Z,27.74
2023-07-18T15:09:47.087Z,27.65
2023-07-18T15:12:14.527Z,27.58
2023-07-18T15:14:41.340Z,27.31
2023-07-18T15:17:08.528Z,26.96
2023-07-18T15:19:35.408Z,26.71
2023-07-18T15:22:02.792Z,26.52
2023-07-18T15:24:29.491Z,26.43
2023-07-18T15:26:56.989Z,26.34
2023-07-18T15:29:23.903Z,26.14
2023-07-18T15:31:50.687Z,26.02
2023-07-18T15:34:17.478Z,26.01
2023-07-18T15:36:46.440Z,26.00
2023-07-18T15:39:13.689Z,25.82
2023-07-18T15:41:40.514Z,25.71
2023-07-18T15:44:07.398Z,25.54
2023-07-18T15:46:37.225Z,25.49
2023-07-18T15:49:05.296Z,25.55
2023-07-18T15:51:32.294Z,25.55
2023-07-18T15:53:59.092Z,25.58
2023-07-18T15:56:25.761Z,25.63
2023-07-18T15:58:53.633Z,25.62
2023-07-18T16:01:20.662Z,25.46
2023-07-18T16:03:47.803Z,25.41
2023-07-18T16:06:15.016Z,25.36
2023-07-18T16:08:41.810Z,25.33
2023-07-18T16:11:08.568Z,25.22
2023-07-18T16:13:36.377Z,25.20
2023-07-18T16:16:05.514Z,25.36
2023-07-18T16:18:32.381Z,25.50
2023-07-18T16:20:59.155Z,25.61
2023-07-18T16:23:26.041Z,25.72
2023-07-18T16:25:52.804Z,25.64
2023-07-18T16:28:19.607Z,25.62
2023-07-18T16:30:46.420Z,25.51
2023-07-18T16:33:13.449Z,25.39
2023-07-18T16:35:40.435Z,25.33
2023-07-18T16:38:07.608Z,25.27
2023-07-18T16:40:36.806Z,25.21
2023-07-18T16:43:06.096Z,25.11
2023-07-18T16:45:33.007Z,25.12
2023-07-18T16:47:59.877Z,25.14
2023-07-18T16:50:26.694Z,25.09
2023-07-18T16:52:53.551Z,24.94
2023-07-18T16:55:20.277Z,24.97
2023-07-18T16:57:46.914Z,25.06
2023-07-18T17:00:13.993Z,24.98
2023-07-18T17:02:40.660Z,25.00
2023-07-18T17:05:07.630Z,25.00
2023-07-18T17:07:34.297Z,24.89
2023-07-18T17:10:02.247Z,24.93
2023-07-18T17:12:29.069Z,24.94
2023-07-18T17:14:56.504Z,24.66
2023-07-18T17:17:23.361Z,24.54
2023-07-18T17:20:04.664Z,24.32
2023-07-18T17:22:34.452Z,24.13
2023-07-18T17:25:01.256Z,24.10
2023-07-18T17:27:28.633Z,24.15
2023-07-18T17:29:55.359Z,24.09
2023-07-18T17:32:22.159Z,24.11
2023-07-18T17:34:48.984Z,24.19
2023-07-18T17:37:16.210Z,24.30
2023-07-18T17:39:44.592Z,24.16
2023-07-18T17:42:12.438Z,24.16
2023-07-18T17:44:41.168Z,24.08
2023-07-18T17:47:07.922Z,24.02
2023-07-18T17:49:34.597Z,23.90
2023-07-18T17:52:01.402Z,23.84
2023-07-18T17:54:28.880Z,23.80
2023-07-18T17:56:56.066Z,23.77
2023-07-18T17:59:22.865Z,23.79
2023-07-18T18:01:49.693Z,23.76
2023-07-18T18:04:16.531Z,23.75
2023-07-18T18:06:46.305Z,23.82
2023-07-18T18:09:12.998Z,23.82
2023-07-18T18:11:39.672Z,23.71
2023-07-18T18:14:07.127Z,23.60
2023-07-18T18:16:34.857Z,23.47
2023-07-18T18:19:04.175Z,23.41
2023-07-18T18:21:31.880Z,23.34
2023-07-18T18:23:58.615Z,23.36
2023-07-18T18:26:25.902Z,23.35
2023-07-18T18:28:54.324Z,23.32
2023-07-18T18:31:21.325Z,23.31
2023-07-18T18:33:48.411Z,23.28
2023-07-18T18:36:15.287Z,23.21
2023-07-18T18:38:42.835Z,23.09
2023-07-18T18:41:09.563Z,23.07
2023-07-18T18:43:36.305Z,23.09
2023-07-18T18:46:03.169Z,23.07
2023-07-18T18:48:30.184Z,22.97
2023-07-18T18:50:57.302Z,22.85
2023-07-18T18:53:25.696Z,22.78
2023-07-18T18:55:52.406Z,22.65
2023-07-18T18:58:19.915Z,22.60
2023-07-18T19:00:46.684Z,22.62
2023-07-18T19:03:13.538Z,22.67
2023-07-18T19:05:40.305Z,22.69
2023-07-18T19:08:07.020Z,22.67
2023-07-18T19:10:33.753Z,22.68
2023-07-18T19:13:00.712Z,22.74
2023-07-18T19:15:27.698Z,22.72
2023-07-18T19:17:54.411Z,22.66
2023-07-18T19:20:21.182Z,22.52
2023-07-18T19:22:48.260Z,22.40
2023-07-18T19:25:15.411Z,22.26
2023-07-18T19:27:42.242Z,22.12
2023-07-18T19:30:11.255Z,22.07
2023-07-18T19:32:40.309Z,22.03
2023-07-18T19:35:07.419Z,22.02
2023-07-18T19:37:34.743Z,22.00
2023-07-18T19:40:01.416Z,22.04
2023-07-18T19:42:28.136Z,22.07
2023-07-18T19:44:55.195Z,22.07
2023-07-18T19:47:21.949Z,22.07
2023-07-18T19:49:49.972Z,22.05
2023-07-18T19:52:16.719Z,22.00
2023-07-18T19:54:43.456Z,21.91
2023-07-18T19:57:10.112Z,21.79
2023-07-18T19:59:36.705Z,21.72
2023-07-18T20:02:03.464Z,21.64
2023-07-18T20:04:30.315Z,21.54
2023-07-18T20:06:57.046Z,21.46
2023-07-18T20:09:24.045Z,21.37
2023-07-18T20:11:50.769Z,21.39
2023-07-18T20:14:17.444Z,21.38
2023-07-18T20:16:44.140Z,21.33
2023-07-18T20:19:11.461Z,21.26
2023-07-18T20:21:43.097Z,21.28
2023-07-18T20:24:09.965Z,21.29
2023-07-18T20:26:36.744Z,21.32
2023-07-18T20:29:05.615Z,21.33
2023-07-18T20:31:32.473Z,21.34
2023-07-18T20:34:00.714Z,21.26
2023-07-18T20:36:27.630Z,21.14
2023-07-18T20:38:54.294Z,21.11
2023-07-18T20:41:21.262Z,21.06
2023-07-18T20:43:48.106Z,21.03
2023-07-18T20:46:17.040Z,21.02
2023-07-18T20:48:43.751Z,21.04
2023-07-18T20:51:10.404Z,21.04
2023-07-18T20:53:37.188Z,21.04
2023-07-18T20:56:04.272Z,21.04
2023-07-18T20:58:31.644Z,21.02
2023-07-18T21:00:58.450Z,20.98
2023-07-18T21:03:25.298Z,20.88
2023-07-18T21:05:52.196Z,20.86
2023-07-18T21:08:19.558Z,20.85
2023-07-18T21:10:46.296Z,20.83
2023-07-18T21:13:13.300Z,20.83
2023-07-18T21:15:40.124Z,20.75
2023-07-18T21:18:06.909Z,20.73
2023-07-18T21:20:33.764Z,20.71
2023-07-18T21:23:00.794Z,20.68
2023-07-18T21:25:28.301Z,20.64
2023-07-18T21:27:55.022Z,20.56
2023-07-18T21:30:21.834Z,20.46
2023-07-18T21:32:48.553Z,20.36
2023-07-18T21:35:16.050Z,20.29
2023-07-18T21:37:42.692Z,20.25
2023-07-18T21:40:09.960Z,20.26
2023-07-18T21:42:36.685Z,20.24
2023-07-18T21:45:03.543Z,20.19
2023-07-18T21:47:30.466Z,20.15
2023-07-18T21:49:57.140Z,20.12
2023-07-18T21:52:23.948Z,20.13
2023-07-18T21:54:50.680Z,20.13
2023-07-18T21:57:17.753Z,20.12
2023-07-18T21:59:44.701Z,20.11
2023-07-18T22:02:13.022Z,20.09
2023-07-18T22:04:40.141Z,20.10
2023-07-18T22:07:09.234Z,20.10
2023-07-18T22:09:36.344Z,20.11
2023-07-18T22:12:04.472Z,20.10
2023-07-18T22:14:31.230Z,20.09
2023-07-18T22:16:58.065Z,20.06
2023-07-18T22:19:24.742Z,20.04
2023-07-18T22:21:51.456Z,20.04
2023-07-18T22:24:18.205Z,20.02
2023-07-18T22:26:45.231Z,19.98
2023-07-18T22:29:11.941Z,19.95
2023-07-18T22:31:38.853Z,19.94
2023-07-18T22:34:05.590Z,19.92
2023-07-18T22:36:32.318Z,19.92
2023-07-18T22:38:59.028Z,19.92
2023-07-18T22:41:26.230Z,19.90
2023-07-18T22:43:53.218Z,19.88
2023-07-18T22:46:20.032Z,19.83
2023-07-18T22:48:46.780Z,19.79
2023-07-18T22:51:13.467Z,19.75
2023-07-18T22:53:40.312Z,19.74
2023-07-18T22:56:06.991Z,19.71
2023-07-18T22:58:33.913Z,19.66
2023-07-18T23:01:00.650Z,19.59
2023-07-18T23:03:27.419Z,19.52
2023-07-18T23:05:54.195Z,19.45
2023-07-18T23:08:20.786Z,19.45
2023-07-18T23:10:47.975Z,19.45
2023-07-18T23:13:16.345Z,19.43
2023-07-18T23:15:43.246Z,19.40
2023-07-18T23:18:09.930Z,19.37
2023-07-18T23:20:36.715Z,19.35
2023-07-18T23:23:04.169Z,19.31
2023-07-18T23:25:31.035Z,19.25
2023-07-18T23:27:57.828Z,19.19
2023-07-18T23:30:24.515Z,19.18
2023-07-18T23:32:51.257Z,19.16
2023-07-18T23:35:18.037Z,19.15
2023-07-18T23:37:44.702Z,19.11
2023-07-18T23:40:11.476Z,19.04
2023-07-18T23:42:38.650Z,19.01
2023-07-18T23:45:05.777Z,19.01
2023-07-18T23:47:32.481Z,18.97
2023-07-18T23:49:59.264Z,18.90
2023-07-18T23:52:25.891Z,18.84
2023-07-18T23:54:52.501Z,18.82
2023-07-18T23:57:19.127Z,18.83
2023-07-18T23:59:45.748Z,18.78
